| time (UTC) | temp F | wind direction | speed MPH | gust MPH | rain 1hr in | rain 24hr in | rain mn in | humidity % | barometer mb |
| 20260506033009 | 44 | 20 | 2.0 | 6.0 | 0.00 | 0.00 | 0.00 | 78 | 1014.7 |
| 20260506032506 | 44 | 14 | 2.0 | 6.0 | 0.00 | 0.00 | 0.00 | 78 | 1014.7 |
| 20260506032006 | 44 | 12 | 3.0 | 7.0 | 0.00 | 0.00 | 0.00 | 78 | 1014.7 |
| 20260506031509 | 44 | 22 | 4.0 | 9.0 | 0.00 | 0.00 | 0.00 | 78 | 1014.8 |
| 20260506031005 | 44 | 31 | 3.0 | 9.0 | 0.00 | 0.00 | 0.00 | 78 | 1014.8 |
| 20260506030506 | 44 | 23 | 3.0 | 7.0 | 0.00 | 0.00 | 0.00 | 78 | 1014.8 |
| 20260506025507 | 44 | 36 | 3.0 | 8.0 | 0.00 | 0.00 | 0.00 | 77 | 1014.9 |
| 20260506025005 | 44 | 37 | 5.0 | 10.0 | 0.00 | 0.00 | 0.00 | 77 | 1014.8 |
| 20260506024508 | 44 | 34 | 4.0 | 10.0 | 0.00 | 0.00 | 0.00 | 77 | 1014.8 |
| 20260506024005 | 44 | 31 | 5.0 | 11.0 | 0.00 | 0.00 | 0.00 | 77 | 1014.8 |
| 20260506023507 | 44 | 30 | 4.0 | 11.0 | 0.00 | 0.00 | 0.00 | 77 | 1014.7 |
| 20260506023008 | 44 | 31 | 4.0 | 9.0 | 0.00 | 0.00 | 0.00 | 77 | 1014.7 |
| 20260506022506 | 44 | 34 | 4.0 | 9.0 | 0.00 | 0.00 | 0.00 | 76 | 1014.7 |
| 20260506021508 | 44 | 45 | 5.0 | 12.0 | 0.00 | 0.00 | 0.00 | 76 | 1014.6 |
| 20260506020506 | 44 | 42 | 4.0 | 12.0 | 0.00 | 0.00 | 0.00 | 75 | 1014.6 |
| 20260506020008 | 44 | 38 | 5.0 | 10.0 | 0.00 | 0.00 | 0.00 | 75 | 1014.5 |
| 20260506015005 | 45 | 50 | 6.0 | 11.0 | 0.00 | 0.00 | 0.00 | 75 | 1014.6 |
| 20260506014508 | 45 | 45 | 6.0 | 12.0 | 0.00 | 0.00 | 0.00 | 75 | 1014.6 |
| 20260506014005 | 45 | 40 | 6.0 | 12.0 | 0.00 | 0.00 | 0.00 | 75 | 1014.6 |
| 20260506013505 | 45 | 36 | 5.0 | 12.0 | 0.00 | 0.00 | 0.00 | 75 | 1014.6 |
| 20260506013008 | 45 | 37 | 4.0 | 8.0 | 0.00 | 0.00 | 0.00 | 76 | 1014.7 |
| 20260506012506 | 45 | 42 | 4.0 | 9.0 | 0.00 | 0.00 | 0.00 | 76 | 1014.8 |
| 20260506012006 | 45 | 40 | 5.0 | 10.0 | 0.00 | 0.00 | 0.00 | 76 | 1014.8 |
| 20260506011509 | 45 | 38 | 5.0 | 10.0 | 0.00 | 0.00 | 0.00 | 74 | 1014.8 |
| 20260506011006 | 45 | 38 | 5.0 | 9.0 | 0.00 | 0.00 | 0.00 | 73 | 1014.9 |
| 20260506010506 | 45 | 45 | 5.0 | 9.0 | 0.00 | 0.00 | 0.00 | 73 | 1015.0 |
| 20260506010010 | 45 | 48 | 4.0 | 11.0 | 0.00 | 0.00 | 0.00 | 72 | 1014.9 |
| 20260506005505 | 45 | 44 | 5.0 | 11.0 | 0.00 | 0.00 | 0.00 | 73 | 1014.9 |
| 20260506005006 | 45 | 46 | 5.0 | 11.0 | 0.00 | 0.00 | 0.00 | 73 | 1014.9 |
| 20260506004508 | 45 | 44 | 5.0 | 11.0 | 0.00 | 0.00 | 0.00 | 74 | 1014.9 |
| 20260506004005 | 45 | 38 | 4.0 | 9.0 | 0.00 | 0.00 | 0.00 | 74 | 1015.0 |
| 20260506003506 | 45 | 40 | 3.0 | 9.0 | 0.00 | 0.00 | 0.00 | 74 | 1015.0 |
| 20260506003009 | 45 | 45 | 4.0 | 11.0 | 0.00 | 0.00 | 0.00 | 75 | 1015.0 |
| 20260506002506 | 45 | 43 | 5.0 | 11.0 | 0.00 | 0.00 | 0.00 | 75 | 1014.9 |
| 20260506002006 | 45 | 47 | 5.0 | 9.0 | 0.00 | 0.00 | 0.00 | 75 | 1014.9 |
| 20260506001005 | 46 | 61 | 4.0 | 10.0 | 0.00 | 0.00 | 0.00 | 75 | 1014.9 |
| 20260506000505 | 46 | 63 | 6.0 | 14.0 | 0.00 | 0.00 | 0.00 | 75 | 1014.9 |
| 20260505235506 | 46 | 45 | 4.0 | 11.0 | 0.00 | 0.00 | 0.00 | 77 | 1014.8 |
| 20260505235005 | 46 | 45 | 4.0 | 11.0 | 0.00 | 0.00 | 0.00 | 77 | 1014.9 |
| 20260505234509 | 46 | 51 | 4.0 | 9.0 | 0.00 | 0.00 | 0.00 | 78 | 1015.0 |
| 20260505234006 | 46 | 55 | 4.0 | 9.0 | 0.00 | 0.00 | 0.00 | 78 | 1015.0 |
| 20260505233506 | 46 | 51 | 5.0 | 9.0 | 0.00 | 0.00 | 0.00 | 78 | 1014.9 |
| 20260505233008 | 46 | 49 | 5.0 | 9.0 | 0.00 | 0.00 | 0.00 | 78 | 1014.8 |
| 20260505232505 | 46 | 50 | 5.0 | 9.0 | 0.00 | 0.00 | 0.00 | 78 | 1014.9 |
| 20260505232005 | 46 | 52 | 5.0 | 9.0 | 0.00 | 0.00 | 0.00 | 78 | 1014.9 |
| 20260505231509 | 46 | 61 | 4.0 | 9.0 | 0.00 | 0.00 | 0.00 | 78 | 1014.9 |
| 20260505231006 | 46 | 58 | 4.0 | 9.0 | 0.00 | 0.00 | 0.00 | 78 | 1015.0 |
| 20260505230505 | 46 | 55 | 5.0 | 9.0 | 0.00 | 0.00 | 0.00 | 78 | 1015.0 |
| 20260505230012 | 46 | 54 | 6.0 | 11.0 | 0.00 | 0.00 | 0.00 | 78 | 1014.9 |
| 20260505225505 | 46 | 47 | 6.0 | 11.0 | 0.00 | 0.00 | 0.00 | 78 | 1015.0 |
| 20260505225005 | 46 | 44 | 6.0 | 11.0 | 0.00 | 0.00 | 0.00 | 78 | 1015.0 |
| 20260505224007 | 46 | 56 | 4.0 | 11.0 | 0.00 | 0.00 | 0.00 | 78 | 1015.0 |
| 20260505223506 | 46 | 55 | 5.0 | 11.0 | 0.00 | 0.00 | 0.00 | 78 | 1015.1 |
| 20260505223009 | 47 | 48 | 5.0 | 11.0 | 0.00 | 0.00 | 0.00 | 77 | 1015.0 |
| 20260505222505 | 47 | 49 | 5.0 | 10.0 | 0.00 | 0.00 | 0.00 | 78 | 1015.0 |
| 20260505222005 | 47 | 54 | 5.0 | 9.0 | 0.00 | 0.00 | 0.00 | 78 | 1015.0 |
| 20260505221508 | 47 | 54 | 4.0 | 10.0 | 0.00 | 0.00 | 0.00 | 79 | 1015.1 |
| 20260505221006 | 47 | 61 | 2.0 | 10.0 | 0.00 | 0.00 | 0.00 | 78 | 1015.0 |
| 20260505220505 | 47 | 63 | 3.0 | 8.0 | 0.00 | 0.00 | 0.00 | 78 | 1015.0 |
| 20260505215005 | 47 | 58 | 6.0 | 13.0 | 0.00 | 0.00 | 0.00 | 78 | 1014.9 |
| 20260505214509 | 47 | 48 | 5.0 | 13.0 | 0.00 | 0.00 | 0.00 | 78 | 1014.8 |
| 20260505214006 | 47 | 47 | 5.0 | 11.0 | 0.00 | 0.00 | 0.00 | 78 | 1014.8 |
| 20260505213505 | 47 | 53 | 6.0 | 9.0 | 0.00 | 0.00 | 0.00 | 78 | 1014.8 |
| 20260505213009 | 47 | 56 | 6.0 | 11.0 | 0.00 | 0.00 | 0.00 | 77 | 1014.7 |
| 20260505212005 | 47 | 53 | 7.0 | 12.0 | 0.00 | 0.00 | 0.00 | 77 | 1014.8 |
| 20260505211509 | 47 | 50 | 7.0 | 12.0 | 0.00 | 0.00 | 0.00 | 77 | 1014.9 |
| 20260505211005 | 47 | 46 | 7.0 | 17.0 | 0.00 | 0.00 | 0.00 | 77 | 1014.9 |
| 20260505210506 | 47 | 47 | 8.0 | 17.0 | 0.00 | 0.00 | 0.00 | 77 | 1014.8 |
| 20260505210008 | 48 | 49 | 5.0 | 11.0 | 0.00 | 0.00 | 0.00 | 77 | 1014.9 |
| 20260505205506 | 48 | 50 | 6.0 | 13.0 | 0.00 | 0.00 | 0.00 | 78 | 1014.8 |
| 20260505205006 | 48 | 44 | 7.0 | 13.0 | 0.00 | 0.00 | 0.00 | 78 | 1014.8 |
| 20260505204508 | 48 | 38 | 7.0 | 13.0 | 0.00 | 0.00 | 0.00 | 78 | 1014.7 |
| 20260505204005 | 48 | 39 | 6.0 | 10.0 | 0.00 | 0.00 | 0.00 | 78 | 1014.6 |
| 20260505203505 | 48 | 36 | 6.0 | 11.0 | 0.00 | 0.00 | 0.00 | 78 | 1014.6 |
| 20260505203009 | 48 | 42 | 6.0 | 11.0 | 0.00 | 0.00 | 0.00 | 78 | 1014.6 |
| 20260505202506 | 48 | 45 | 8.0 | 15.0 | 0.00 | 0.00 | 0.00 | 78 | 1014.5 |
| 20260505202005 | 48 | 39 | 9.0 | 15.0 | 0.00 | 0.00 | 0.00 | 78 | 1014.5 |
| 20260505200506 | 49 | 46 | 3.0 | 9.0 | 0.00 | 0.00 | 0.00 | 78 | 1014.5 |
| 20260505200008 | 49 | 38 | 4.0 | 9.0 | 0.00 | 0.00 | 0.00 | 78 | 1014.5 |
| 20260505195005 | 49 | 45 | 5.0 | 12.0 | 0.00 | 0.00 | 0.00 | 77 | 1014.3 |
| 20260505194507 | 49 | 49 | 7.0 | 13.0 | 0.00 | 0.00 | 0.00 | 76 | 1014.3 |
| 20260505194005 | 49 | 48 | 7.0 | 13.0 | 0.00 | 0.00 | 0.00 | 76 | 1014.2 |
| 20260505193506 | 49 | 47 | 6.0 | 14.0 | 0.00 | 0.00 | 0.00 | 75 | 1014.2 |
| 20260505192505 | 50 | 50 | 6.0 | 12.0 | 0.00 | 0.00 | 0.00 | 75 | 1014.1 |
| 20260505192005 | 50 | 60 | 5.0 | 13.0 | 0.00 | 0.00 | 0.00 | 74 | 1014.1 |
| 20260505191509 | 50 | 59 | 4.0 | 13.0 | 0.00 | 0.00 | 0.00 | 74 | 1014.0 |
| 20260505190506 | 50 | 42 | 5.0 | 10.0 | 0.00 | 0.00 | 0.00 | 75 | 1014.0 |
| 20260505190007 | 50 | 41 | 6.0 | 10.0 | 0.00 | 0.00 | 0.00 | 75 | 1014.0 |
| 20260505184509 | 51 | 38 | 8.0 | 13.0 | 0.00 | 0.00 | 0.00 | 75 | 1013.9 |
| 20260505184005 | 51 | 31 | 7.0 | 13.0 | 0.00 | 0.00 | 0.00 | 76 | 1013.8 |
| 20260505182005 | 51 | 53 | 7.0 | 12.0 | 0.00 | 0.00 | 0.00 | 75 | 1013.7 |
| 20260505181507 | 52 | 50 | 6.0 | 11.0 | 0.00 | 0.00 | 0.00 | 75 | 1013.6 |
| 20260505181006 | 52 | 44 | 5.0 | 10.0 | 0.00 | 0.00 | 0.00 | 75 | 1013.6 |
| 20260505180505 | 52 | 44 | 4.0 | 10.0 | 0.00 | 0.00 | 0.00 | 75 | 1013.6 |
| 20260505180009 | 52 | 53 | 3.0 | 8.0 | 0.00 | 0.00 | 0.00 | 76 | 1013.6 |
| 20260505175506 | 52 | 57 | 4.0 | 9.0 | 0.00 | 0.00 | 0.00 | 75 | 1013.6 |
| 20260505175005 | 52 | 62 | 4.0 | 10.0 | 0.00 | 0.00 | 0.00 | 75 | 1013.6 |
| 20260505174508 | 52 | 64 | 4.0 | 10.0 | 0.00 | 0.00 | 0.00 | 74 | 1013.6 |
| 20260505174005 | 52 | 45 | 6.0 | 12.0 | 0.00 | 0.00 | 0.00 | 74 | 1013.6 |
| 20260505173505 | 52 | 35 | 6.0 | 12.0 | 0.00 | 0.00 | 0.00 | 74 | 1013.6 |
| 20260505173007 | 52 | 44 | 5.0 | 10.0 | 0.00 | 0.00 | 0.00 | 74 | 1013.6 |
| 20260505172505 | 53 | 52 | 4.0 | 9.0 | 0.00 | 0.00 | 0.00 | 73 | 1013.6 |
| 20260505172006 | 53 | 55 | 5.0 | 10.0 | 0.00 | 0.00 | 0.00 | 73 | 1013.6 |
| 20260505171507 | 53 | 56 | 6.0 | 10.0 | 0.00 | 0.00 | 0.00 | 72 | 1013.6 |
| 20260505171005 | 53 | 53 | 4.0 | 9.0 | 0.00 | 0.00 | 0.00 | 71 | 1013.6 |
| 20260505170505 | 53 | 353 | 2.0 | 8.0 | 0.00 | 0.00 | 0.00 | 70 | 1013.7 |
| 20260505170008 | 54 | 298 | 2.0 | 5.0 | 0.00 | 0.00 | 0.00 | 68 | 1013.6 |
| 20260505165506 | 54 | 292 | 2.0 | 5.0 | 0.00 | 0.00 | 0.00 | 67 | 1013.6 |
| 20260505165006 | 54 | 282 | 2.0 | 5.0 | 0.00 | 0.00 | 0.00 | 67 | 1013.5 |
| 20260505164507 | 54 | 291 | 3.0 | 7.0 | 0.00 | 0.00 | 0.00 | 66 | 1013.4 |
| 20260505164005 | 54 | 300 | 3.0 | 7.0 | 0.00 | 0.00 | 0.00 | 67 | 1013.6 |
| 20260505163504 | 54 | 301 | 2.0 | 7.0 | 0.00 | 0.00 | 0.00 | 67 | 1013.6 |
| 20260505163009 | 54 | 285 | 2.0 | 5.0 | 0.00 | 0.00 | 0.00 | 66 | 1013.6 |
| 20260505162506 | 54 | 275 | 3.0 | 5.0 | 0.00 | 0.00 | 0.00 | 66 | 1013.6 |
| 20260505162005 | 54 | 288 | 3.0 | 5.0 | 0.00 | 0.00 | 0.00 | 65 | 1013.6 |
| 20260505161508 | 54 | 298 | 2.0 | 4.0 | 0.00 | 0.00 | 0.00 | 67 | 1013.5 |
| 20260505161006 | 54 | 305 | 2.0 | 6.0 | 0.00 | 0.00 | 0.00 | 65 | 1013.5 |
| 20260505160506 | 54 | 298 | 2.0 | 6.0 | 0.00 | 0.00 | 0.00 | 66 | 1013.5 |
| 20260505153008 | 55 | 293 | 2.0 | 5.0 | 0.00 | 0.00 | 0.00 | 66 | 1013.6 |
| 20260505152505 | 55 | 279 | 2.0 | 5.0 | 0.00 | 0.00 | 0.00 | 69 | 1013.6 |
| 20260505152005 | 55 | 254 | 2.0 | 5.0 | 0.00 | 0.00 | 0.00 | 69 | 1013.6 |
| 20260505151508 | 55 | 253 | 3.0 | 5.0 | 0.00 | 0.00 | 0.00 | 67 | 1013.6 |
| 20260505151005 | 55 | 249 | 3.0 | 7.0 | 0.00 | 0.00 | 0.00 | 69 | 1013.6 |
| 20260505140505 | 53 | 305 | 2.0 | 5.0 | 0.00 | 0.00 | 0.00 | 72 | 1013.8 |
| 20260505125004 | 54 | 316 | 3.0 | 9.0 | 0.00 | 0.00 | 0.00 | 68 | 1013.8 |
| 20260505123504 | 53 | 326 | 3.0 | 7.0 | 0.00 | 0.00 | 0.00 | 69 | 1013.8 |
| 20260505123008 | 53 | 321 | 3.0 | 8.0 | 0.00 | 0.00 | 0.00 | 71 | 1013.8 |
| 20260505122505 | 53 | 305 | 3.0 | 8.0 | 0.00 | 0.00 | 0.00 | 72 | 1013.8 |
| 20260505122004 | 53 | 307 | 3.0 | 8.0 | 0.00 | 0.00 | 0.00 | 73 | 1013.9 |
| 20260505121006 | 53 | 314 | 6.0 | 11.0 | 0.00 | 0.00 | 0.00 | 73 | 1013.8 |
| 20260505120506 | 53 | 311 | 5.0 | 11.0 | 0.00 | 0.00 | 0.00 | 73 | 1013.9 |
| 20260505120008 | 52 | 307 | 5.0 | 11.0 | 0.00 | 0.00 | 0.00 | 73 | 1013.9 |
| 20260505115505 | 52 | 312 | 6.0 | 11.0 | 0.00 | 0.00 | 0.00 | 72 | 1013.9 |
| 20260505115004 | 53 | 317 | 6.0 | 10.0 | 0.00 | 0.00 | 0.00 | 73 | 1013.9 |
| 20260505114508 | 52 | 312 | 4.0 | 10.0 | 0.00 | 0.00 | 0.00 | 71 | 1013.9 |
| 20260505114005 | 52 | 306 | 4.0 | 9.0 | 0.00 | 0.00 | 0.00 | 72 | 1013.9 |
| 20260505113008 | 52 | 302 | 4.0 | 9.0 | 0.00 | 0.00 | 0.00 | 70 | 1014.0 |
| 20260505112505 | 52 | 311 | 5.0 | 9.0 | 0.00 | 0.00 | 0.00 | 70 | 1014.0 |
| 20260505112004 | 53 | 310 | 4.0 | 9.0 | 0.00 | 0.00 | 0.00 | 70 | 1014.0 |
| 20260505111005 | 54 | 304 | 4.0 | 9.0 | 0.00 | 0.00 | 0.00 | 67 | 1014.0 |
| 20260505110506 | 54 | 318 | 3.0 | 8.0 | 0.00 | 0.00 | 0.00 | 66 | 1013.9 |
| 20260505102004 | 52 | 283 | 5.0 | 8.0 | 0.00 | 0.00 | 0.00 | 70 | 1014.2 |
| 20260505101508 | 52 | 284 | 5.0 | 9.0 | 0.00 | 0.00 | 0.00 | 70 | 1014.2 |
| 20260505101004 | 52 | 287 | 5.0 | 9.0 | 0.00 | 0.00 | 0.00 | 71 | 1014.1 |
| 20260505100506 | 52 | 291 | 4.0 | 8.0 | 0.00 | 0.00 | 0.00 | 72 | 1014.2 |
| 20260505100008 | 52 | 286 | 4.0 | 8.0 | 0.00 | 0.00 | 0.00 | 73 | 1014.1 |
| 20260505094507 | 52 | 296 | 5.0 | 8.0 | 0.00 | 0.00 | 0.00 | 71 | 1014.2 |
| 20260505093504 | 52 | 298 | 4.0 | 10.0 | 0.00 | 0.00 | 0.00 | 68 | 1014.2 |
| 20260505093007 | 53 | 300 | 4.0 | 10.0 | 0.00 | 0.00 | 0.00 | 67 | 1014.2 |
| 20260505092005 | 53 | 315 | 4.0 | 12.0 | 0.00 | 0.00 | 0.00 | 66 | 1014.2 |
| 20260505091508 | 53 | 326 | 4.0 | 11.0 | 0.00 | 0.00 | 0.00 | 66 | 1014.2 |
| 20260505090505 | 53 | 355 | 5.0 | 12.0 | 0.00 | 0.00 | 0.00 | 65 | 1014.2 |
| 20260505090008 | 53 | 348 | 4.0 | 10.0 | 0.00 | 0.00 | 0.00 | 66 | 1014.2 |
| 20260505085505 | 53 | 335 | 4.0 | 10.0 | 0.00 | 0.00 | 0.00 | 67 | 1014.2 |
| 20260505085004 | 53 | 346 | 6.0 | 16.0 | 0.00 | 0.00 | 0.00 | 66 | 1014.2 |
| 20260505084507 | 53 | 344 | 6.0 | 16.0 | 0.00 | 0.00 | 0.00 | 68 | 1014.2 |
| 20260505083504 | 52 | 319 | 7.0 | 13.0 | 0.00 | 0.00 | 0.00 | 67 | 1014.3 |
| 20260505083007 | 52 | 317 | 6.0 | 13.0 | 0.00 | 0.00 | 0.00 | 68 | 1014.2 |
| 20260505082505 | 52 | 308 | 7.0 | 13.0 | 0.00 | 0.00 | 0.00 | 72 | 1014.3 |
| 20260505082004 | 52 | 316 | 6.0 | 13.0 | 0.00 | 0.00 | 0.00 | 73 | 1014.3 |
| 20260505081507 | 52 | 349 | 4.0 | 11.0 | 0.00 | 0.00 | 0.00 | 76 | 1014.3 |
| 20260505081005 | 51 | 346 | 4.0 | 10.0 | 0.00 | 0.00 | 0.00 | 79 | 1014.3 |
| 20260505080505 | 50 | 340 | 4.0 | 9.0 | 0.00 | 0.00 | 0.00 | 81 | 1014.3 |
| 20260505080007 | 49 | 344 | 4.0 | 10.0 | 0.00 | 0.00 | 0.00 | 83 | 1014.5 |
| 20260505075506 | 49 | 358 | 3.0 | 10.0 | 0.00 | 0.00 | 0.00 | 84 | 1014.4 |
| 20260505075004 | 48 | 25 | 2.0 | 4.0 | 0.00 | 0.00 | 0.00 | 86 | 1014.3 |
| 20260505074507 | 48 | 3 | 2.0 | 5.0 | 0.00 | 0.00 | 0.00 | 87 | 1014.4 |
| 20260505074005 | 47 | 327 | 2.0 | 5.0 | 0.00 | 0.00 | 0.00 | 88 | 1014.4 |
| 20260505073008 | 47 | 19 | 1.0 | 4.0 | 0.00 | 0.00 | 0.00 | 89 | 1014.4 |
| 20260505072505 | 46 | 13 | 1.0 | 4.0 | 0.00 | 0.00 | 0.00 | 90 | 1014.5 |
| 20260505072004 | 46 | 323 | 1.0 | 4.0 | 0.00 | 0.00 | 0.00 | 90 | 1014.4 |
| 20260505071004 | 45 | 352 | 1.0 | 4.0 | 0.00 | 0.00 | 0.00 | 90 | 1014.6 |
| 20260505070505 | 45 | 326 | 2.0 | 5.0 | 0.00 | 0.00 | 0.00 | 90 | 1014.6 |
| 20260505070007 | 45 | 314 | 1.0 | 5.0 | 0.00 | 0.00 | 0.00 | 90 | 1014.6 |
| 20260505065505 | 44 | 344 | 1.0 | 3.0 | 0.00 | 0.00 | 0.00 | 90 | 1014.7 |
| 20260505065005 | 44 | 332 | 2.0 | 4.0 | 0.00 | 0.00 | 0.00 | 90 | 1014.7 |
| 20260505064507 | 44 | 326 | 2.0 | 4.0 | 0.00 | 0.00 | 0.00 | 90 | 1014.7 |
| 20260505064007 | 44 | 327 | 2.0 | 3.0 | 0.00 | 0.00 | 0.00 | 90 | 1014.7 |
| 20260505063504 | 43 | 338 | 2.0 | 3.0 | 0.00 | 0.00 | 0.00 | 90 | 1014.6 |
| 20260505063008 | 43 | 351 | 1.0 | 3.0 | 0.00 | 0.00 | 0.00 | 90 | 1014.8 |
| 20260505062505 | 43 | 0 | 0.0 | 2.0 | 0.00 | 0.00 | 0.00 | 90 | 1014.8 |
| 20260505062004 | 42 | 0 | 0.0 | 1.0 | 0.00 | 0.00 | 0.00 | 90 | 1014.7 |
| 20260505061508 | 42 | 0 | 0.0 | 0.0 | 0.00 | 0.00 | 0.00 | 90 | 1014.7 |
| 20260505061004 | 42 | 0 | 0.0 | 0.0 | 0.00 | 0.00 | 0.00 | 90 | 1014.7 |
| 20260505060007 | 41 | 0 | 0.0 | 2.0 | 0.00 | 0.00 | 0.00 | 90 | 1014.6 |
| 20260505055005 | 40 | 0 | 0.0 | 2.0 | 0.00 | 0.00 | 0.00 | 90 | 1014.6 |
| 20260505054507 | 40 | 160 | 1.0 | 2.0 | 0.00 | 0.00 | 0.00 | 90 | 1014.6 |
| 20260505054004 | 40 | 160 | 1.0 | 2.0 | 0.00 | 0.00 | 0.00 | 90 | 1014.6 |
| 20260505053504 | 39 | 0 | 0.0 | 2.0 | 0.00 | 0.00 | 0.00 | 90 | 1014.6 |
| 20260505053007 | 39 | 0 | 0.0 | 2.0 | 0.00 | 0.00 | 0.00 | 90 | 1014.6 |
| 20260505052504 | 39 | 0 | 0.0 | 2.0 | 0.00 | 0.00 | 0.00 | 90 | 1014.6 |
| 20260505051508 | 39 | 0 | 0.0 | 2.0 | 0.00 | 0.00 | 0.00 | 90 | 1014.5 |
| 20260505051004 | 39 | 0 | 0.0 | 2.0 | 0.00 | 0.00 | 0.00 | 90 | 1014.5 |
| 20260505050505 | 38 | 0 | 0.0 | 2.0 | 0.00 | 0.00 | 0.00 | 90 | 1014.5 |
| 20260505041508 | 38 | 0 | 0.0 | 2.0 | 0.00 | 0.00 | 0.00 | 90 | 1014.2 |
| 20260505041006 | 38 | 0 | 0.0 | 2.0 | 0.00 | 0.00 | 0.00 | 90 | 1014.2 |
| 20260505040504 | 39 | 0 | 0.0 | 1.0 | 0.00 | 0.00 | 0.00 | 90 | 1014.2 |
| 20260505040007 | 39 | 0 | 0.0 | 2.0 | 0.00 | 0.00 | 0.00 | 90 | 1014.1 |
| 20260505035004 | 39 | 0 | 0.0 | 0.0 | 0.00 | 0.00 | 0.00 | 90 | 1014.2 |
| 20260505034508 | 39 | 169 | 1.0 | 2.0 | 0.00 | 0.00 | 0.00 | 90 | 1014.2 |
| 20260505034005 | 39 | 169 | 1.0 | 2.0 | 0.00 | 0.00 | 0.00 | 90 | 1014.2 |
| 20260505033504 | 39 | 0 | 0.0 | 2.0 | 0.00 | 0.00 | 0.00 | 90 | 1014.2 |